Round Top, TX (78954)

11:54 PM CDT on April 25, 2015 (GMT -0500)
Jaster Road Round Top Texas | | Change Station
CLOSE
Current Station
Personal Weather Station
Location: Round Top, TX
Elevation: 456 ft
Nearby Weather Stations

Elev 456 ft 30.09 °N, 96.71 °W | Updated 11 seconds ago

Partly Cloudy
Partly Cloudy
72.3 °F
Feels Like 72.3 °F
N
8.1
Wind Variable Wind from South
Gusts 9.8 mph

Today
High -- | Low -- °F
--% Chance of Precip.
Yesterday
High -- | Low -- °F
Precip. -- in
6:49 AM 8:00 PM
First Quarter, 52% visible
Pressure 29.77 in
Visibility 1.8 miles
Clouds
Dew Point 70 °F
Humidity 94%
Rainfall in
Snow Depth Not available.
UV 0.0 out of 12
Pollen 8.70 out of 12
Air Quality Not available.
Flu Activity Local Activity
METAR KGYB 260435Z AUTO 18005KT 1 3/4SM +RA VV007 22/21 A2977 RMK AO2 VIS 1 1/4V3 T02230208

More Conditions Fewer Conditions

Pressure 29.77 in
Visibility 1.8 miles
Clouds
Dew Point 70 °F
Humidity 94%
Rainfall in
Snow Depth Not available.
UV 0.0 out of 12
Pollen 8.70 out of 12
Air Quality Not available.
Flu Activity Local Activity
METAR KGYB 260435Z AUTO 18005KT 1 3/4SM +RA VV007 22/21 A2977 RMK AO2 VIS 1 1/4V3 T02230208

More Conditions Fewer Conditions

The full scope of the disaster following a powerful 7.8-magnitude earthquake in Nepal may not come into view for days, but global charities are already sending emergency aid. Click to see how you can help.

10-Day Weather Forecast

Almanac

Astronomy

Apr. 25, 2015 Rise Set
Actual Time
Civil Twilight
Nautical Twilight
Astronomical Twilight
Moon
Length of Visible Light
Length of Day
Tomorrow will be .
, % of the Moon is Illuminated

Today's Extremes

State Highs State Lows

Community

WunderPhotos

Upload Photos

1,816,938 photos uploaded!

WunderBlogs® & News

Nearby

Air Quality

  Air Quality AQ Index Pollutant
Not available.

Snow Depth

Station Depth Elevation

Earthquake Activity

City Distance Mag. Time & Date
Minimum magnitude displayed is 2.5.

Coastal Water Temperatures

Place Temperature

Stations

Nearby Weather Stations

Station Location Temp. Windchill Dew Point Humidity Wind Precip. Elev Updated Type